createdAt,value
2018-07-11T00:00:44.150Z,93.60
2018-07-11T00:03:12.458Z,93.60
2018-07-11T00:05:40.778Z,93.50
2018-07-11T00:08:09.071Z,93.50
2018-07-11T00:10:37.388Z,93.20
2018-07-11T00:13:05.694Z,92.90
2018-07-11T00:15:34.022Z,92.70
2018-07-11T00:18:02.320Z,92.50
2018-07-11T00:20:30.614Z,92.50
2018-07-11T00:22:58.930Z,92.60
2018-07-11T00:25:27.234Z,92.70
2018-07-11T00:27:55.555Z,92.60
2018-07-11T00:30:23.854Z,92.50
2018-07-11T00:32:52.170Z,92.60
2018-07-11T00:35:20.470Z,92.40
2018-07-11T00:37:48.781Z,92.50
2018-07-11T00:40:17.078Z,92.60
2018-07-11T00:42:45.398Z,92.60
2018-07-11T00:45:13.698Z,92.80
2018-07-11T00:47:42.025Z,92.80
2018-07-11T00:50:10.326Z,92.90
2018-07-11T00:52:38.643Z,93.00
2018-07-11T00:55:06.935Z,93.10
2018-07-11T00:57:35.259Z,93.20
2018-07-11T01:00:03.559Z,93.10
2018-07-11T01:02:31.869Z,93.20
2018-07-11T01:04:59.396Z,93.10
2018-07-11T01:07:27.711Z,93.20
2018-07-11T01:09:56.002Z,93.20
2018-07-11T01:12:24.322Z,93.10
2018-07-11T01:14:52.619Z,93.00
2018-07-11T01:17:20.935Z,92.90
2018-07-11T01:19:49.226Z,92.70
2018-07-11T01:22:17.545Z,92.60
2018-07-11T01:24:45.841Z,92.70
2018-07-11T01:27:14.159Z,92.50
2018-07-11T01:29:42.454Z,92.60
2018-07-11T01:32:10.783Z,92.60
2018-07-11T01:34:39.086Z,92.50
2018-07-11T01:37:07.402Z,92.60
2018-07-11T01:39:35.700Z,92.50
2018-07-11T01:42:04.018Z,92.70
2018-07-11T01:44:31.546Z,92.70
2018-07-11T01:46:59.871Z,92.80
2018-07-11T01:49:28.167Z,92.90
2018-07-11T01:55:06.230Z,92.90
2018-07-11T01:57:34.551Z,93.30
2018-07-11T02:00:02.850Z,93.30
2018-07-11T02:02:31.162Z,93.30
2018-07-11T02:04:59.463Z,93.30
2018-07-11T02:07:27.782Z,93.30
2018-07-11T02:09:56.074Z,93.40
2018-07-11T02:12:24.406Z,93.40
2018-07-11T02:14:52.707Z,93.40
2018-07-11T02:17:21.031Z,93.20
2018-07-11T02:19:49.330Z,93.20
2018-07-11T02:22:17.648Z,93.40
2018-07-11T02:24:45.946Z,93.50
2018-07-11T02:27:14.266Z,93.50
2018-07-11T02:29:42.570Z,93.50
2018-07-11T02:32:10.887Z,93.50
2018-07-11T02:34:39.198Z,93.60
2018-07-11T02:37:07.523Z,93.60
2018-07-11T02:39:35.821Z,93.60
2018-07-11T02:42:04.139Z,93.50
2018-07-11T02:44:32.434Z,93.50
2018-07-11T02:47:00.751Z,93.50
2018-07-11T02:49:29.058Z,93.60
2018-07-11T02:51:57.362Z,93.50
2018-07-11T02:54:25.685Z,93.40
2018-07-11T02:56:53.984Z,93.40
2018-07-11T02:59:22.315Z,93.40
2018-07-11T03:01:50.617Z,93.40
2018-07-11T03:04:18.938Z,93.30
2018-07-11T03:06:47.243Z,93.30
2018-07-11T03:09:15.570Z,93.40
2018-07-11T03:11:43.865Z,93.30
2018-07-11T03:14:12.186Z,93.30
2018-07-11T03:16:40.478Z,93.30
2018-07-11T03:19:08.798Z,93.30
2018-07-11T03:21:37.101Z,93.30
2018-07-11T03:24:05.419Z,93.30
2018-07-11T03:26:32.945Z,93.30
2018-07-11T03:29:01.262Z,93.20
2018-07-11T03:31:29.567Z,93.20
2018-07-11T03:33:57.882Z,93.20
2018-07-11T03:36:26.175Z,93.20
2018-07-11T03:38:54.490Z,93.20
2018-07-11T03:41:22.786Z,93.30
2018-07-11T03:43:51.105Z,93.40
2018-07-11T03:46:19.398Z,93.40
2018-07-11T03:48:47.714Z,93.30
2018-07-11T03:51:16.010Z,93.40
2018-07-11T03:53:44.387Z,93.40
2018-07-11T03:56:12.654Z,93.30
2018-07-11T03:58:40.966Z,93.30
2018-07-11T04:01:09.266Z,93.30
2018-07-11T04:03:37.587Z,93.30
2018-07-11T04:06:05.878Z,93.40
2018-07-11T04:08:34.198Z,93.50
2018-07-11T04:11:02.497Z,93.50
2018-07-11T04:13:30.814Z,93.30
2018-07-11T04:15:59.114Z,93.40
2018-07-11T04:18:27.444Z,93.40
2018-07-11T04:20:55.742Z,93.40
2018-07-11T04:23:24.061Z,93.50
2018-07-11T04:25:52.357Z,93.50
2018-07-11T04:28:20.674Z,93.30
2018-07-11T04:30:48.979Z,93.00
2018-07-11T04:33:17.321Z,92.80
2018-07-11T04:35:45.616Z,92.80
2018-07-11T04:38:13.937Z,92.50
2018-07-11T04:40:42.233Z,92.30
2018-07-11T04:43:10.550Z,92.10
2018-07-11T04:45:38.845Z,92.10
2018-07-11T04:48:07.167Z,92.10
2018-07-11T04:50:35.498Z,92.30
2018-07-11T04:53:03.811Z,92.50
2018-07-11T04:55:32.129Z,92.30
2018-07-11T04:58:00.430Z,92.20
2018-07-11T05:00:28.763Z,92.10
2018-07-11T05:02:57.069Z,92.10
2018-07-11T05:05:25.388Z,92.10
2018-07-11T05:07:53.685Z,92.00
2018-07-11T05:10:22.008Z,92.00
2018-07-11T05:12:50.307Z,91.90
2018-07-11T05:15:18.631Z,91.90
2018-07-11T05:17:46.936Z,91.80
2018-07-11T05:20:15.258Z,91.70
2018-07-11T05:22:43.555Z,90.90
2018-07-11T05:25:11.877Z,90.80
2018-07-11T05:27:40.195Z,90.70
2018-07-11T05:30:08.522Z,90.80
2018-07-11T05:32:36.826Z,90.90
2018-07-11T05:35:05.137Z,91.10
2018-07-11T05:37:33.442Z,91.20
2018-07-11T05:40:01.763Z,91.00
2018-07-11T05:42:30.104Z,90.50
2018-07-11T05:44:58.400Z,90.20
2018-07-11T05:47:26.706Z,89.90
2018-07-11T05:49:55.019Z,89.10
2018-07-11T05:52:23.323Z,88.20
2018-07-11T05:54:51.646Z,87.60
2018-07-11T05:57:19.938Z,86.70
2018-07-11T05:59:48.266Z,85.60
2018-07-11T06:02:16.570Z,84.80
2018-07-11T06:04:44.896Z,84.20
2018-07-11T06:07:13.194Z,84.10
2018-07-11T06:09:41.514Z,83.60
2018-07-11T06:12:09.814Z,82.40
2018-07-11T06:14:38.148Z,81.70
2018-07-11T06:17:06.448Z,81.30
2018-07-11T06:19:34.761Z,81.10
2018-07-11T06:22:03.088Z,79.20
2018-07-11T06:24:31.415Z,79.40
2018-07-11T06:26:59.714Z,80.00
2018-07-11T06:29:28.034Z,79.90
2018-07-11T06:31:56.332Z,79.60
2018-07-11T06:34:24.642Z,79.90
2018-07-11T06:36:52.942Z,79.80
2018-07-11T06:39:21.306Z,79.80
2018-07-11T06:41:49.583Z,79.70
2018-07-11T06:44:17.906Z,79.40
2018-07-11T06:46:46.209Z,79.80
2018-07-11T06:49:13.734Z,79.80
2018-07-11T06:51:42.060Z,77.90
2018-07-11T06:54:09.586Z,77.90
2018-07-11T06:56:37.897Z,76.20
2018-07-11T06:59:06.193Z,76.50
2018-07-11T07:01:34.511Z,76.20
2018-07-11T07:04:02.809Z,75.70
2018-07-11T07:06:31.121Z,75.40
2018-07-11T07:08:59.418Z,73.80
2018-07-11T07:11:27.745Z,73.40
2018-07-11T07:13:56.051Z,73.80
2018-07-11T07:16:24.401Z,74.80
2018-07-11T07:18:52.691Z,75.60
2018-07-11T07:21:21.001Z,75.60
2018-07-11T07:23:49.294Z,75.70
2018-07-11T07:26:17.605Z,75.40
2018-07-11T07:28:45.902Z,75.00
2018-07-11T07:31:14.226Z,75.40
2018-07-11T07:33:42.531Z,75.10
2018-07-11T07:36:10.868Z,74.80
2018-07-11T07:38:39.159Z,73.60
2018-07-11T07:41:07.474Z,73.10
2018-07-11T07:43:35.769Z,73.10
2018-07-11T07:46:04.086Z,72.10
2018-07-11T07:48:32.387Z,70.90
2018-07-11T07:51:00.697Z,70.70
2018-07-11T07:53:28.994Z,70.50
2018-07-11T07:55:57.319Z,68.40
2018-07-11T07:58:25.627Z,66.40
2018-07-11T08:00:53.947Z,64.20
2018-07-11T08:03:22.246Z,62.70
2018-07-11T08:05:50.565Z,60.90
2018-07-11T08:08:18.864Z,60.00
2018-07-11T08:10:47.178Z,59.60
2018-07-11T08:13:15.471Z,59.20
2018-07-11T08:15:43.792Z,58.80
2018-07-11T08:18:12.082Z,57.20
2018-07-11T08:20:40.398Z,56.60
2018-07-11T08:23:20.454Z,56.40
2018-07-11T08:26:11.567Z,56.20
2018-07-11T08:28:39.862Z,56.50
2018-07-11T08:31:08.179Z,57.00
2018-07-11T08:33:36.478Z,56.80
2018-07-11T08:36:04.795Z,57.20
2018-07-11T08:38:33.091Z,57.30
2018-07-11T08:41:01.410Z,57.30
2018-07-11T08:43:29.702Z,56.90
2018-07-11T08:45:58.020Z,57.00
2018-07-11T08:48:26.311Z,57.00
2018-07-11T08:50:54.631Z,56.80
2018-07-11T08:53:22.923Z,56.50
2018-07-11T08:55:50.476Z,56.50
2018-07-11T08:58:18.766Z,54.80
2018-07-11T09:00:47.082Z,54.80
2018-07-11T09:03:15.378Z,53.90
2018-07-11T09:05:43.705Z,53.70
2018-07-11T09:08:12.002Z,53.90
2018-07-11T09:10:40.400Z,55.00
2018-07-11T09:13:08.634Z,54.90
2018-07-11T09:15:36.922Z,55.10
2018-07-11T09:18:05.234Z,55.40
2018-07-11T09:20:33.531Z,55.10
2018-07-11T09:23:01.843Z,53.80
2018-07-11T09:25:30.136Z,54.00
2018-07-11T09:27:58.448Z,54.40
2018-07-11T09:30:26.779Z,53.70
2018-07-11T09:32:55.082Z,53.30
2018-07-11T09:35:23.391Z,51.90
2018-07-11T09:37:51.706Z,51.00
2018-07-11T09:40:20.010Z,51.50
2018-07-11T09:42:48.322Z,52.00
2018-07-11T09:45:16.630Z,52.90
2018-07-11T09:47:44.948Z,51.40
2018-07-11T09:50:13.242Z,50.70
2018-07-11T09:52:41.556Z,50.30
2018-07-11T09:55:09.849Z,49.80
2018-07-11T09:57:38.193Z,49.10
2018-07-11T10:00:06.486Z,48.80
2018-07-11T10:02:34.805Z,49.00
2018-07-11T10:05:03.132Z,49.60
2018-07-11T10:07:31.820Z,49.00
2018-07-11T10:10:00.119Z,49.70
2018-07-11T10:12:28.451Z,50.10
2018-07-11T10:14:56.754Z,49.10
2018-07-11T10:17:25.077Z,48.50
2018-07-11T10:19:53.375Z,47.30
2018-07-11T10:22:21.694Z,47.20
2018-07-11T10:24:49.988Z,46.00
2018-07-11T10:27:18.305Z,45.50
2018-07-11T10:29:46.610Z,46.00
2018-07-11T10:32:14.934Z,45.90
2018-07-11T10:34:43.226Z,46.30
2018-07-11T10:37:11.542Z,47.40
2018-07-11T10:39:39.838Z,48.50
2018-07-11T10:42:08.155Z,49.50
2018-07-11T10:44:36.458Z,50.00
2018-07-11T10:47:04.775Z,49.60
2018-07-11T10:49:33.073Z,47.70
2018-07-11T10:52:01.387Z,46.70
2018-07-11T10:54:29.695Z,45.00
2018-07-11T10:56:58.083Z,43.30
2018-07-11T10:59:26.341Z,43.10
2018-07-11T11:01:54.661Z,43.30
2018-07-11T11:04:22.965Z,43.70
2018-07-11T11:06:51.287Z,44.40
2018-07-11T11:09:19.577Z,44.80
2018-07-11T11:11:47.907Z,45.60
2018-07-11T11:14:16.207Z,45.90
2018-07-11T11:16:44.504Z,45.10
2018-07-11T11:19:12.819Z,44.00
2018-07-11T11:21:41.115Z,44.20
2018-07-11T11:24:08.670Z,44.20
2018-07-11T11:26:36.972Z,44.20
2018-07-11T11:29:05.298Z,44.90
2018-07-11T11:31:33.599Z,45.50
2018-07-11T11:34:01.920Z,44.70
2018-07-11T11:36:30.209Z,45.50
2018-07-11T11:38:58.521Z,45.40
2018-07-11T11:41:26.830Z,46.00
2018-07-11T11:43:55.156Z,46.60
2018-07-11T11:46:23.449Z,46.30
2018-07-11T11:48:51.762Z,45.40
2018-07-11T11:51:20.055Z,45.00
2018-07-11T11:53:48.370Z,45.00
2018-07-11T11:56:16.662Z,46.30
2018-07-11T11:58:44.981Z,47.00
2018-07-11T12:01:13.274Z,46.60
2018-07-11T12:03:41.588Z,47.20
2018-07-11T12:06:09.886Z,46.60
2018-07-11T12:08:38.206Z,46.20
2018-07-11T12:11:06.498Z,45.20
2018-07-11T12:13:34.817Z,45.40
2018-07-11T12:16:03.115Z,45.60
2018-07-11T12:18:31.429Z,44.70
2018-07-11T12:20:59.721Z,44.70
2018-07-11T12:23:28.026Z,44.30
2018-07-11T12:25:56.323Z,43.70
2018-07-11T12:28:24.633Z,43.00
2018-07-11T12:30:52.923Z,41.40
2018-07-11T12:33:21.241Z,40.60
2018-07-11T12:35:49.554Z,40.90
2018-07-11T12:38:17.126Z,40.90
2018-07-11T12:40:45.414Z,42.60
2018-07-11T12:43:13.733Z,43.00
2018-07-11T12:45:42.023Z,42.80
2018-07-11T12:48:09.581Z,42.80
2018-07-11T12:50:37.869Z,43.70
2018-07-11T12:53:06.181Z,43.40
2018-07-11T12:55:34.665Z,44.00
2018-07-11T12:58:02.959Z,44.30
2018-07-11T13:00:31.270Z,44.00
2018-07-11T13:02:59.566Z,42.20
2018-07-11T13:05:27.887Z,40.50
2018-07-11T13:07:56.175Z,40.50
2018-07-11T13:10:24.487Z,41.40
2018-07-11T13:12:52.790Z,41.80
2018-07-11T13:15:21.107Z,42.20
2018-07-11T13:17:49.402Z,42.90
2018-07-11T13:20:17.716Z,42.80
2018-07-11T13:22:46.015Z,42.30
2018-07-11T13:25:14.396Z,42.60
2018-07-11T13:27:42.692Z,42.60
2018-07-11T13:30:10.998Z,42.20
2018-07-11T13:32:39.295Z,41.90
2018-07-11T13:35:07.610Z,41.70
2018-07-11T13:37:35.907Z,41.70
2018-07-11T13:40:04.226Z,40.50
2018-07-11T13:42:32.566Z,41.20
2018-07-11T13:45:00.884Z,40.10
2018-07-11T13:47:29.174Z,40.20
2018-07-11T13:49:57.490Z,40.10
2018-07-11T13:52:25.782Z,40.50
2018-07-11T13:54:54.097Z,39.80
2018-07-11T13:57:21.618Z,39.80
2018-07-11T13:59:49.930Z,40.20
2018-07-11T14:02:18.214Z,38.70
2018-07-11T14:04:46.526Z,38.50
2018-07-11T14:07:14.828Z,38.30
2018-07-11T14:09:43.141Z,37.80
2018-07-11T14:12:11.431Z,38.00
2018-07-11T14:14:39.752Z,38.70
2018-07-11T14:17:08.043Z,38.60
2018-07-11T14:19:36.358Z,38.80
2018-07-11T14:22:04.652Z,38.30
2018-07-11T14:24:32.190Z,38.30
2018-07-11T14:27:00.490Z,37.00
2018-07-11T14:29:28.809Z,37.00
2018-07-11T14:31:57.102Z,37.10
2018-07-11T14:34:25.418Z,37.30
2018-07-11T14:36:53.715Z,36.80
2018-07-11T14:39:22.026Z,36.40
2018-07-11T14:41:50.318Z,37.50
2018-07-11T14:44:18.650Z,37.40
2018-07-11T14:46:46.946Z,38.70
2018-07-11T14:49:15.256Z,39.10
2018-07-11T14:51:43.546Z,38.30
2018-07-11T14:54:11.883Z,38.20
2018-07-11T14:56:40.199Z,37.30
2018-07-11T14:59:08.490Z,36.70
2018-07-11T15:01:36.840Z,37.00
2018-07-11T15:04:05.142Z,37.20
2018-07-11T15:06:33.466Z,38.30
2018-07-11T15:09:01.941Z,38.90
2018-07-11T15:11:30.088Z,38.30
2018-07-11T15:13:58.380Z,37.50
2018-07-11T15:16:25.927Z,37.50
2018-07-11T15:18:54.221Z,38.50
2018-07-11T15:21:22.537Z,39.00
2018-07-11T15:23:50.831Z,39.00
2018-07-11T15:26:19.139Z,39.70
2018-07-11T15:28:47.425Z,40.10
2018-07-11T15:31:15.741Z,40.90
2018-07-11T15:33:44.040Z,41.50
2018-07-11T15:36:12.369Z,40.80
2018-07-11T15:38:39.899Z,40.80
2018-07-11T15:41:08.211Z,40.00
2018-07-11T15:43:36.507Z,39.30
2018-07-11T15:46:04.832Z,39.00
2018-07-11T15:48:32.358Z,39.00
2018-07-11T15:51:00.684Z,38.30
2018-07-11T15:53:28.999Z,38.40
2018-07-11T15:55:57.306Z,37.50
2018-07-11T15:58:25.603Z,36.90
2018-07-11T16:00:53.907Z,37.60
2018-07-11T16:03:22.198Z,38.10
2018-07-11T16:05:50.596Z,37.80
2018-07-11T16:08:18.819Z,37.70
2018-07-11T16:10:47.131Z,38.30
2018-07-11T16:13:15.427Z,38.10
2018-07-11T16:15:43.755Z,38.50
2018-07-11T16:18:12.066Z,38.40
2018-07-11T16:20:40.381Z,39.20
2018-07-11T16:23:08.684Z,39.90
2018-07-11T16:25:36.997Z,40.30
2018-07-11T16:28:05.294Z,40.90
2018-07-11T16:30:33.611Z,41.40
2018-07-11T16:33:01.908Z,42.40
2018-07-11T16:35:30.248Z,42.20
2018-07-11T16:37:58.546Z,42.50
2018-07-11T16:40:26.863Z,43.20
2018-07-11T16:42:55.161Z,43.70
2018-07-11T16:45:23.466Z,44.00
2018-07-11T16:47:51.752Z,44.50
2018-07-11T16:50:20.037Z,45.00
2018-07-11T16:52:48.494Z,44.90
2018-07-11T16:55:17.023Z,44.90
2018-07-11T16:57:45.331Z,45.10
2018-07-11T17:00:13.626Z,45.30
2018-07-11T17:02:41.948Z,45.80
2018-07-11T17:05:10.246Z,45.90
2018-07-11T17:07:38.558Z,46.20
2018-07-11T17:10:06.853Z,46.30
2018-07-11T17:12:35.166Z,47.10
2018-07-11T17:15:03.454Z,46.80
2018-07-11T17:17:31.770Z,47.10
2018-07-11T17:20:00.060Z,47.30
2018-07-11T17:22:28.378Z,47.40
2018-07-11T17:24:56.683Z,47.50
2018-07-11T17:27:25.005Z,47.70
2018-07-11T17:29:53.299Z,48.00
2018-07-11T17:32:21.606Z,48.00
2018-07-11T17:34:49.893Z,48.30
2018-07-11T17:37:18.245Z,48.70
2018-07-11T17:39:46.523Z,48.90
2018-07-11T17:42:14.842Z,49.00
2018-07-11T17:44:43.130Z,49.10
2018-07-11T17:47:11.450Z,49.40
2018-07-11T17:49:39.743Z,49.60
2018-07-11T17:52:08.058Z,50.00
2018-07-11T17:54:36.349Z,50.20
2018-07-11T17:57:04.662Z,50.60
2018-07-11T17:59:32.961Z,51.00
2018-07-11T18:02:01.291Z,51.10
2018-07-11T18:04:28.818Z,51.10
2018-07-11T18:06:57.126Z,51.50
2018-07-11T18:09:25.415Z,51.80
2018-07-11T18:11:53.738Z,52.20
2018-07-11T18:14:22.058Z,52.50
2018-07-11T18:16:50.366Z,52.60
2018-07-11T18:19:18.655Z,52.50
2018-07-11T18:21:46.971Z,52.70
2018-07-11T18:24:15.263Z,52.90
2018-07-11T18:26:43.570Z,53.20
2018-07-11T18:29:11.859Z,53.90
2018-07-11T18:31:40.170Z,54.90
2018-07-11T18:34:08.453Z,55.50
2018-07-11T18:36:36.767Z,56.00
2018-07-11T18:39:05.062Z,56.20
2018-07-11T18:41:33.384Z,56.40
2018-07-11T18:44:01.686Z,56.70
2018-07-11T18:46:30.013Z,56.90
2018-07-11T18:48:58.308Z,57.20
2018-07-11T18:51:26.606Z,57.60
2018-07-11T18:53:54.922Z,57.90
2018-07-11T18:56:23.225Z,58.30
2018-07-11T18:58:51.551Z,59.30
2018-07-11T19:01:19.840Z,58.80
2018-07-11T19:03:48.149Z,59.00
2018-07-11T19:06:16.713Z,59.30
2018-07-11T19:08:44.770Z,59.40
2018-07-11T19:11:13.059Z,59.70
2018-07-11T19:13:41.371Z,60.60
2018-07-11T19:16:09.672Z,60.20
2018-07-11T19:18:37.991Z,60.50
2018-07-11T19:21:06.275Z,60.60
2018-07-11T19:23:34.602Z,60.80
2018-07-11T19:26:02.136Z,60.80
2018-07-11T19:28:30.454Z,61.80
2018-07-11T19:30:58.792Z,62.00
2018-07-11T19:33:27.078Z,62.20
2018-07-11T19:35:55.375Z,62.80
2018-07-11T19:38:23.694Z,63.10
2018-07-11T19:40:51.998Z,63.80
2018-07-11T19:43:20.314Z,64.80
2018-07-11T19:45:48.616Z,66.60
2018-07-11T19:48:16.943Z,68.10
2018-07-11T19:50:45.234Z,69.90
2018-07-11T19:53:13.550Z,71.20
2018-07-11T19:55:41.851Z,72.90
2018-07-11T19:58:10.166Z,74.00
2018-07-11T20:00:38.458Z,75.30
2018-07-11T20:03:06.780Z,76.20
2018-07-11T20:05:35.080Z,76.70
2018-07-11T20:08:03.401Z,77.60
2018-07-11T20:10:31.695Z,78.20
2018-07-11T20:13:00.017Z,79.60
2018-07-11T20:15:28.338Z,79.30
2018-07-11T20:17:56.655Z,80.10
2018-07-11T20:20:24.951Z,80.60
2018-07-11T20:22:53.298Z,81.30
2018-07-11T20:25:20.813Z,81.30
2018-07-11T20:27:49.134Z,81.80
2018-07-11T20:30:17.430Z,82.00
2018-07-11T20:32:45.747Z,82.50
2018-07-11T20:35:14.047Z,83.30
2018-07-11T20:37:42.366Z,83.70
2018-07-11T20:40:10.663Z,84.20
2018-07-11T20:42:38.983Z,84.60
2018-07-11T20:45:07.279Z,84.70
2018-07-11T20:47:34.834Z,84.60
2018-07-11T20:50:03.134Z,84.90
2018-07-11T20:52:31.426Z,85.00
2018-07-11T20:54:59.741Z,85.40
2018-07-11T20:57:28.036Z,85.40
2018-07-11T21:00:08.326Z,85.90
2018-07-11T21:02:48.535Z,86.00
2018-07-11T21:05:16.059Z,86.10
2018-07-11T21:07:44.399Z,86.10
2018-07-11T21:10:12.691Z,86.20
2018-07-11T21:12:40.987Z,86.30
2018-07-11T21:15:08.530Z,86.40
2018-07-11T21:17:36.056Z,86.50
2018-07-11T21:20:04.374Z,83.80
2018-07-11T21:22:32.661Z,83.90
2018-07-11T21:25:00.969Z,84.20
2018-07-11T21:27:29.271Z,84.00
2018-07-11T21:29:57.586Z,84.10
2018-07-11T21:32:25.878Z,84.30
2018-07-11T21:34:54.189Z,85.00
2018-07-11T21:37:22.483Z,84.80
2018-07-11T21:39:50.797Z,85.30
2018-07-11T21:42:19.102Z,85.30
2018-07-11T21:44:47.423Z,85.50
2018-07-11T21:47:15.718Z,85.20
2018-07-11T21:49:44.029Z,85.20
2018-07-11T21:52:12.322Z,85.50
2018-07-11T21:54:40.638Z,86.00
2018-07-11T21:57:08.939Z,86.00
2018-07-11T21:59:37.246Z,86.10
2018-07-11T22:02:05.548Z,86.80
2018-07-11T22:04:33.867Z,86.80
2018-07-11T22:07:02.166Z,86.80
2018-07-11T22:09:30.486Z,86.80
2018-07-11T22:11:58.783Z,87.10
2018-07-11T22:14:27.126Z,87.10
2018-07-11T22:16:55.418Z,87.20
2018-07-11T22:19:23.743Z,87.50
2018-07-11T22:21:51.545Z,87.90
2018-07-11T22:24:19.374Z,87.90
2018-07-11T22:26:47.178Z,87.30
2018-07-11T22:29:15.009Z,87.20
2018-07-11T22:31:42.823Z,87.30
2018-07-11T22:34:10.650Z,87.40
2018-07-11T22:36:38.458Z,87.00
2018-07-11T22:39:06.278Z,86.30
2018-07-11T22:41:34.084Z,85.90
2018-07-11T22:44:01.911Z,85.60
2018-07-11T22:46:29.732Z,85.40
2018-07-11T22:48:57.558Z,85.20
2018-07-11T22:51:25.362Z,84.50
2018-07-11T22:53:53.195Z,84.10
2018-07-11T22:56:20.993Z,83.10
2018-07-11T22:58:48.795Z,82.80
2018-07-11T23:01:16.617Z,82.80
2018-07-11T23:03:43.650Z,82.70
2018-07-11T23:06:10.710Z,82.10
2018-07-11T23:08:38.515Z,82.10
2018-07-11T23:11:06.343Z,82.00
2018-07-11T23:13:34.145Z,81.90
2018-07-11T23:16:01.973Z,81.30
2018-07-11T23:18:29.778Z,81.00
2018-07-11T23:20:57.605Z,81.10
2018-07-11T23:23:25.410Z,81.00
2018-07-11T23:25:53.230Z,80.90
2018-07-11T23:28:21.042Z,81.30
2018-07-11T23:30:48.875Z,80.90
2018-07-11T23:33:16.678Z,81.10
2018-07-11T23:35:44.499Z,81.40
2018-07-11T23:38:12.307Z,82.20
2018-07-11T23:40:40.130Z,81.30
2018-07-11T23:43:07.930Z,81.20
2018-07-11T23:45:35.755Z,81.20
2018-07-11T23:48:03.561Z,81.50
2018-07-11T23:50:31.387Z,81.60
2018-07-11T23:52:59.185Z,81.40
2018-07-11T23:55:27.015Z,81.50
2018-07-11T23:57:54.820Z,81.80
